sensor_id;sensor_type;location;lat;lon;timestamp;temperature;humidity
73570;SHT30;61850;54.980;73.298;2023-02-15T00:00:11;-19.27;86.20
73570;SHT30;61850;54.980;73.298;2023-02-15T00:02:38;-19.25;85.94
73570;SHT30;61850;54.980;73.298;2023-02-15T00:05:09;-19.29;86.07
73570;SHT30;61850;54.980;73.298;2023-02-15T00:07:46;-19.29;85.88
73570;SHT30;61850;54.980;73.298;2023-02-15T00:10:22;-19.33;85.67
73570;SHT30;61850;54.980;73.298;2023-02-15T00:12:54;-19.42;86.55
73570;SHT30;61850;54.980;73.298;2023-02-15T00:15:20;-19.43;86.81
73570;SHT30;61850;54.980;73.298;2023-02-15T00:17:56;-19.45;86.77
73570;SHT30;61850;54.980;73.298;2023-02-15T00:20:28;-19.40;86.87
73570;SHT30;61850;54.980;73.298;2023-02-15T00:22:54;-19.42;86.57
73570;SHT30;61850;54.980;73.298;2023-02-15T00:25:20;-19.47;86.46
73570;SHT30;61850;54.980;73.298;2023-02-15T00:27:47;-19.46;86.57
73570;SHT30;61850;54.980;73.298;2023-02-15T00:30:15;-19.47;86.47
73570;SHT30;61850;54.980;73.298;2023-02-15T00:32:47;-19.47;86.57
73570;SHT30;61850;54.980;73.298;2023-02-15T00:35:14;-19.43;86.97
73570;SHT30;61850;54.980;73.298;2023-02-15T00:37:40;-19.45;87.02
73570;SHT30;61850;54.980;73.298;2023-02-15T00:40:06;-19.43;87.10
73570;SHT30;61850;54.980;73.298;2023-02-15T00:42:33;-19.46;86.96
73570;SHT30;61850;54.980;73.298;2023-02-15T00:44:59;-19.43;87.05
73570;SHT30;61850;54.980;73.298;2023-02-15T00:47:32;-19.46;86.99
73570;SHT30;61850;54.980;73.298;2023-02-15T00:49:59;-19.49;86.97
73570;SHT30;61850;54.980;73.298;2023-02-15T00:52:25;-19.53;86.92
73570;SHT30;61850;54.980;73.298;2023-02-15T00:54:51;-19.55;87.16
73570;SHT30;61850;54.980;73.298;2023-02-15T00:57:22;-19.60;87.23
73570;SHT30;61850;54.980;73.298;2023-02-15T00:59:58;-19.57;87.27
73570;SHT30;61850;54.980;73.298;2023-02-15T01:02:30;-19.55;87.52
73570;SHT30;61850;54.980;73.298;2023-02-15T01:04:56;-19.53;87.31
73570;SHT30;61850;54.980;73.298;2023-02-15T01:07:23;-19.53;87.16
73570;SHT30;61850;54.980;73.298;2023-02-15T01:09:49;-19.57;87.27
73570;SHT30;61850;54.980;73.298;2023-02-15T01:12:23;-19.62;87.12
73570;SHT30;61850;54.980;73.298;2023-02-15T01:14:49;-19.55;86.96
73570;SHT30;61850;54.980;73.298;2023-02-15T01:17:26;-19.57;86.69
73570;SHT30;61850;54.980;73.298;2023-02-15T01:19:52;-19.63;86.56
73570;SHT30;61850;54.980;73.298;2023-02-15T01:22:19;-19.64;86.70
73570;SHT30;61850;54.980;73.298;2023-02-15T01:24:45;-19.67;86.68
73570;SHT30;61850;54.980;73.298;2023-02-15T01:27:11;-19.67;86.53
73570;SHT30;61850;54.980;73.298;2023-02-15T01:29:37;-19.67;86.53
73570;SHT30;61850;54.980;73.298;2023-02-15T01:32:05;-19.66;86.53
73570;SHT30;61850;54.980;73.298;2023-02-15T01:34:31;-19.64;86.35
73570;SHT30;61850;54.980;73.298;2023-02-15T01:36:57;-19.70;86.21
73570;SHT30;61850;54.980;73.298;2023-02-15T01:39:23;-19.66;86.13
73570;SHT30;61850;54.980;73.298;2023-02-15T01:41:55;-19.71;86.09
73570;SHT30;61850;54.980;73.298;2023-02-15T01:44:46;-19.69;85.96
73570;SHT30;61850;54.980;73.298;2023-02-15T01:50:54;-19.70;85.97
73570;SHT30;61850;54.980;73.298;2023-02-15T01:55:32;-19.71;86.16
73570;SHT30;61850;54.980;73.298;2023-02-15T01:57:59;-19.76;86.18
73570;SHT30;61850;54.980;73.298;2023-02-15T02:00:26;-19.77;86.30
73570;SHT30;61850;54.980;73.298;2023-02-15T02:03:02;-19.74;86.13
73570;SHT30;61850;54.980;73.298;2023-02-15T02:05:41;-19.73;86.07
73570;SHT30;61850;54.980;73.298;2023-02-15T02:08:22;-19.81;85.98
73570;SHT30;61850;54.980;73.298;2023-02-15T02:10:52;-19.84;85.99
73570;SHT30;61850;54.980;73.298;2023-02-15T02:13:19;-19.88;86.04
73570;SHT30;61850;54.980;73.298;2023-02-15T02:15:54;-19.91;86.06
73570;SHT30;61850;54.980;73.298;2023-02-15T02:19:10;-19.88;85.86
73570;SHT30;61850;54.980;73.298;2023-02-15T02:24:31;-19.95;85.67
73570;SHT30;61850;54.980;73.298;2023-02-15T02:27:15;-20.00;85.41
73570;SHT30;61850;54.980;73.298;2023-02-15T02:32:44;-20.11;85.49
73570;SHT30;61850;54.980;73.298;2023-02-15T02:35:33;-20.08;85.31
73570;SHT30;61850;54.980;73.298;2023-02-15T02:38:11;-20.09;85.16
73570;SHT30;61850;54.980;73.298;2023-02-15T02:40:52;-20.12;85.06
73570;SHT30;61850;54.980;73.298;2023-02-15T02:43:36;-20.11;85.26
73570;SHT30;61850;54.980;73.298;2023-02-15T02:46:09;-20.11;84.98
73570;SHT30;61850;54.980;73.298;2023-02-15T02:48:39;-20.05;84.94
73570;SHT30;61850;54.980;73.298;2023-02-15T02:51:17;-19.98;84.59
73570;SHT30;61850;54.980;73.298;2023-02-15T02:53:58;-20.04;84.42
73570;SHT30;61850;54.980;73.298;2023-02-15T02:56:30;-20.00;84.24
73570;SHT30;61850;54.980;73.298;2023-02-15T02:59:07;-20.02;83.99
73570;SHT30;61850;54.980;73.298;2023-02-15T03:04:09;-20.05;83.90
73570;SHT30;61850;54.980;73.298;2023-02-15T03:06:41;-20.01;84.03
73570;SHT30;61850;54.980;73.298;2023-02-15T03:09:12;-19.98;83.97
73570;SHT30;61850;54.980;73.298;2023-02-15T03:11:53;-19.97;83.95
73570;SHT30;61850;54.980;73.298;2023-02-15T03:14:32;-19.97;83.89
73570;SHT30;61850;54.980;73.298;2023-02-15T03:16:59;-19.93;83.76
73570;SHT30;61850;54.980;73.298;2023-02-15T03:19:32;-19.90;83.72
73570;SHT30;61850;54.980;73.298;2023-02-15T03:22:13;-19.90;83.77
73570;SHT30;61850;54.980;73.298;2023-02-15T03:25:09;-19.80;83.67
73570;SHT30;61850;54.980;73.298;2023-02-15T03:27:40;-19.64;83.18
73570;SHT30;61850;54.980;73.298;2023-02-15T03:30:15;-19.63;82.60
73570;SHT30;61850;54.980;73.298;2023-02-15T03:32:44;-19.49;82.13
73570;SHT30;61850;54.980;73.298;2023-02-15T03:35:12;-19.46;81.75
73570;SHT30;61850;54.980;73.298;2023-02-15T03:37:41;-19.42;81.41
73570;SHT30;61850;54.980;73.298;2023-02-15T03:43:09;-19.37;80.98
73570;SHT30;61850;54.980;73.298;2023-02-15T03:45:37;-19.40;80.67
73570;SHT30;61850;54.980;73.298;2023-02-15T03:48:13;-19.46;80.52
73570;SHT30;61850;54.980;73.298;2023-02-15T03:50:40;-19.53;80.63
73570;SHT30;61850;54.980;73.298;2023-02-15T03:53:25;-19.62;80.66
73570;SHT30;61850;54.980;73.298;2023-02-15T03:56:02;-19.39;81.15
73570;SHT30;61850;54.980;73.298;2023-02-15T03:58:28;-19.25;81.04
73570;SHT30;61850;54.980;73.298;2023-02-15T04:01:25;-19.25;81.59
73570;SHT30;61850;54.980;73.298;2023-02-15T04:04:20;-19.06;82.02
73570;SHT30;61850;54.980;73.298;2023-02-15T04:06:47;-18.89;81.87
73570;SHT30;61850;54.980;73.298;2023-02-15T04:09:14;-18.77;81.48
73570;SHT30;61850;54.980;73.298;2023-02-15T04:12:09;-18.67;81.32
73570;SHT30;61850;54.980;73.298;2023-02-15T04:14:40;-18.60;80.97
73570;SHT30;61850;54.980;73.298;2023-02-15T04:17:26;-18.52;80.97
73570;SHT30;61850;54.980;73.298;2023-02-15T04:19:52;-18.52;81.02
73570;SHT30;61850;54.980;73.298;2023-02-15T04:22:45;-18.43;81.11
73570;SHT30;61850;54.980;73.298;2023-02-15T04:25:29;-18.42;81.12
73570;SHT30;61850;54.980;73.298;2023-02-15T04:27:56;-18.45;81.05
73570;SHT30;61850;54.980;73.298;2023-02-15T04:30:23;-18.45;81.46
73570;SHT30;61850;54.980;73.298;2023-02-15T04:32:54;-18.35;81.26
73570;SHT30;61850;54.980;73.298;2023-02-15T04:35:22;-18.21;80.93
73570;SHT30;61850;54.980;73.298;2023-02-15T04:37:48;-18.19;80.39
73570;SHT30;61850;54.980;73.298;2023-02-15T04:40:14;-18.11;80.41
73570;SHT30;61850;54.980;73.298;2023-02-15T04:42:42;-17.94;80.16
73570;SHT30;61850;54.980;73.298;2023-02-15T04:45:13;-17.85;80.21
73570;SHT30;61850;54.980;73.298;2023-02-15T04:47:41;-17.70;79.90
73570;SHT30;61850;54.980;73.298;2023-02-15T04:50:07;-17.66;79.43
73570;SHT30;61850;54.980;73.298;2023-02-15T04:52:33;-17.52;79.58
73570;SHT30;61850;54.980;73.298;2023-02-15T04:54:59;-17.46;79.42
73570;SHT30;61850;54.980;73.298;2023-02-15T04:57:25;-17.49;79.67
73570;SHT30;61850;54.980;73.298;2023-02-15T04:59:57;-17.40;79.64
73570;SHT30;61850;54.980;73.298;2023-02-15T05:02:25;-17.42;79.69
73570;SHT30;61850;54.980;73.298;2023-02-15T05:04:51;-17.39;79.60
73570;SHT30;61850;54.980;73.298;2023-02-15T05:07:18;-17.40;79.18
73570;SHT30;61850;54.980;73.298;2023-02-15T05:09:46;-17.42;79.06
73570;SHT30;61850;54.980;73.298;2023-02-15T05:12:13;-17.22;78.74
73570;SHT30;61850;54.980;73.298;2023-02-15T05:14:38;-17.16;78.26
73570;SHT30;61850;54.980;73.298;2023-02-15T05:17:04;-17.15;78.31
73570;SHT30;61850;54.980;73.298;2023-02-15T05:19:30;-17.16;78.27
73570;SHT30;61850;54.980;73.298;2023-02-15T05:21:56;-17.01;78.55
73570;SHT30;61850;54.980;73.298;2023-02-15T05:24:27;-16.94;78.54
73570;SHT30;61850;54.980;73.298;2023-02-15T05:27:22;-16.87;78.65
73570;SHT30;61850;54.980;73.298;2023-02-15T05:30:07;-16.73;78.70
73570;SHT30;61850;54.980;73.298;2023-02-15T05:32:37;-16.64;78.73
73570;SHT30;61850;54.980;73.298;2023-02-15T05:35:04;-16.61;78.65
73570;SHT30;61850;54.980;73.298;2023-02-15T05:37:30;-16.38;78.43
73570;SHT30;61850;54.980;73.298;2023-02-15T05:39:56;-16.28;78.43
73570;SHT30;61850;54.980;73.298;2023-02-15T05:42:22;-16.22;78.48
73570;SHT30;61850;54.980;73.298;2023-02-15T05:44:48;-16.08;78.44
73570;SHT30;61850;54.980;73.298;2023-02-15T05:47:14;-16.02;78.50
73570;SHT30;61850;54.980;73.298;2023-02-15T05:49:42;-15.88;78.62
73570;SHT30;61850;54.980;73.298;2023-02-15T05:52:08;-15.74;78.54
73570;SHT30;61850;54.980;73.298;2023-02-15T05:54:34;-15.50;77.96
73570;SHT30;61850;54.980;73.298;2023-02-15T05:57:10;-15.46;77.85
73570;SHT30;61850;54.980;73.298;2023-02-15T05:59:35;-15.34;77.96
73570;SHT30;61850;54.980;73.298;2023-02-15T06:02:01;-15.10;77.72
73570;SHT30;61850;54.980;73.298;2023-02-15T06:04:27;-15.00;77.10
73570;SHT30;61850;54.980;73.298;2023-02-15T06:06:55;-14.88;76.90
73570;SHT30;61850;54.980;73.298;2023-02-15T06:09:24;-14.70;77.00
73570;SHT30;61850;54.980;73.298;2023-02-15T06:11:50;-14.70;76.74
73570;SHT30;61850;54.980;73.298;2023-02-15T06:14:21;-14.53;76.58
73570;SHT30;61850;54.980;73.298;2023-02-15T06:16:51;-14.53;76.14
73570;SHT30;61850;54.980;73.298;2023-02-15T06:19:17;-14.34;76.10
73570;SHT30;61850;54.980;73.298;2023-02-15T06:21:43;-14.34;75.78
73570;SHT30;61850;54.980;73.298;2023-02-15T06:24:09;-14.27;75.74
73570;SHT30;61850;54.980;73.298;2023-02-15T06:26:35;-14.17;75.30
73570;SHT30;61850;54.980;73.298;2023-02-15T06:29:02;-14.06;74.99
73570;SHT30;61850;54.980;73.298;2023-02-15T06:31:28;-13.97;74.53
73570;SHT30;61850;54.980;73.298;2023-02-15T06:33:54;-13.74;73.72
73570;SHT30;61850;54.980;73.298;2023-02-15T06:36:29;-13.71;73.89
73570;SHT30;61850;54.980;73.298;2023-02-15T06:39:00;-13.73;74.11
73570;SHT30;61850;54.980;73.298;2023-02-15T06:41:26;-13.69;74.32
73570;SHT30;61850;54.980;73.298;2023-02-15T06:43:57;-13.56;74.00
73570;SHT30;61850;54.980;73.298;2023-02-15T06:46:23;-13.42;73.78
73570;SHT30;61850;54.980;73.298;2023-02-15T06:48:54;-13.35;73.48
73570;SHT30;61850;54.980;73.298;2023-02-15T06:51:20;-13.25;73.32
73570;SHT30;61850;54.980;73.298;2023-02-15T06:53:47;-13.18;72.89
73570;SHT30;61850;54.980;73.298;2023-02-15T06:56:13;-13.07;72.87
73570;SHT30;61850;54.980;73.298;2023-02-15T06:58:39;-12.90;72.51
73570;SHT30;61850;54.980;73.298;2023-02-15T07:01:06;-12.83;71.79
73570;SHT30;61850;54.980;73.298;2023-02-15T07:03:32;-12.80;71.79
73570;SHT30;61850;54.980;73.298;2023-02-15T07:05:59;-12.86;71.77
73570;SHT30;61850;54.980;73.298;2023-02-15T07:08:25;-12.75;71.60
73570;SHT30;61850;54.980;73.298;2023-02-15T07:10:52;-12.76;71.66
73570;SHT30;61850;54.980;73.298;2023-02-15T07:13:19;-12.73;72.18
73570;SHT30;61850;54.980;73.298;2023-02-15T07:15:46;-12.65;72.10
73570;SHT30;61850;54.980;73.298;2023-02-15T07:18:15;-12.62;72.21
73570;SHT30;61850;54.980;73.298;2023-02-15T07:20:41;-12.53;72.12
73570;SHT30;61850;54.980;73.298;2023-02-15T07:23:07;-12.48;72.01
73570;SHT30;61850;54.980;73.298;2023-02-15T07:25:34;-12.34;72.16
73570;SHT30;61850;54.980;73.298;2023-02-15T07:28:02;-12.38;72.66
73570;SHT30;61850;54.980;73.298;2023-02-15T07:30:28;-12.29;72.88
73570;SHT30;61850;54.980;73.298;2023-02-15T07:33:04;-12.20;72.75
73570;SHT30;61850;54.980;73.298;2023-02-15T07:35:50;-12.20;72.71
73570;SHT30;61850;54.980;73.298;2023-02-15T07:38:27;-12.17;72.90
73570;SHT30;61850;54.980;73.298;2023-02-15T07:41:03;-11.97;72.56
73570;SHT30;61850;54.980;73.298;2023-02-15T07:43:32;-11.81;72.29
73570;SHT30;61850;54.980;73.298;2023-02-15T07:46:10;-11.90;72.22
73570;SHT30;61850;54.980;73.298;2023-02-15T07:48:37;-11.90;72.24
73570;SHT30;61850;54.980;73.298;2023-02-15T07:51:05;-11.95;72.20
73570;SHT30;61850;54.980;73.298;2023-02-15T07:53:32;-11.74;72.19
73570;SHT30;61850;54.980;73.298;2023-02-15T07:56:02;-11.66;71.66
73570;SHT30;61850;54.980;73.298;2023-02-15T07:58:28;-11.80;71.56
73570;SHT30;61850;54.980;73.298;2023-02-15T08:01:13;-11.60;71.39
73570;SHT30;61850;54.980;73.298;2023-02-15T08:03:40;-11.80;72.00
73570;SHT30;61850;54.980;73.298;2023-02-15T08:06:06;-11.74;71.93
73570;SHT30;61850;54.980;73.298;2023-02-15T08:08:42;-11.80;71.85
73570;SHT30;61850;54.980;73.298;2023-02-15T08:22:00;-11.83;71.80
73570;SHT30;61850;54.980;73.298;2023-02-15T08:24:28;-11.79;71.57
73570;SHT30;61850;54.980;73.298;2023-02-15T08:26:54;-11.69;71.14
73570;SHT30;61850;54.980;73.298;2023-02-15T08:29:21;-11.83;71.29
73570;SHT30;61850;54.980;73.298;2023-02-15T08:31:52;-11.81;71.74
73570;SHT30;61850;54.980;73.298;2023-02-15T08:34:19;-11.79;71.48
73570;SHT30;61850;54.980;73.298;2023-02-15T08:36:45;-11.67;71.25
73570;SHT30;61850;54.980;73.298;2023-02-15T08:39:12;-11.77;71.35
73570;SHT30;61850;54.980;73.298;2023-02-15T08:41:45;-11.79;71.27
73570;SHT30;61850;54.980;73.298;2023-02-15T08:44:13;-11.70;71.35
73570;SHT30;61850;54.980;73.298;2023-02-15T08:46:41;-11.74;71.11
73570;SHT30;61850;54.980;73.298;2023-02-15T08:49:07;-11.74;71.09
73570;SHT30;61850;54.980;73.298;2023-02-15T08:51:43;-11.90;71.27
73570;SHT30;61850;54.980;73.298;2023-02-15T08:54:11;-11.94;71.19
73570;SHT30;61850;54.980;73.298;2023-02-15T08:56:39;-11.80;71.37
73570;SHT30;61850;54.980;73.298;2023-02-15T08:59:16;-11.74;71.15
73570;SHT30;61850;54.980;73.298;2023-02-15T09:01:45;-11.79;71.14
73570;SHT30;61850;54.980;73.298;2023-02-15T09:04:11;-11.62;70.82
73570;SHT30;61850;54.980;73.298;2023-02-15T09:06:39;-11.63;71.01
73570;SHT30;61850;54.980;73.298;2023-02-15T09:09:05;-11.66;70.70
73570;SHT30;61850;54.980;73.298;2023-02-15T09:11:37;-11.73;70.45
73570;SHT30;61850;54.980;73.298;2023-02-15T09:14:06;-11.66;70.18
73570;SHT30;61850;54.980;73.298;2023-02-15T09:16:34;-11.74;70.09
73570;SHT30;61850;54.980;73.298;2023-02-15T09:19:01;-11.73;70.60
73570;SHT30;61850;54.980;73.298;2023-02-15T09:21:38;-11.66;70.55
73570;SHT30;61850;54.980;73.298;2023-02-15T09:24:11;-11.62;70.46
73570;SHT30;61850;54.980;73.298;2023-02-15T09:26:38;-11.55;70.18
73570;SHT30;61850;54.980;73.298;2023-02-15T09:29:17;-11.66;70.50
73570;SHT30;61850;54.980;73.298;2023-02-15T09:31:46;-11.53;70.01
73570;SHT30;61850;54.980;73.298;2023-02-15T09:34:15;-11.62;70.23
73570;SHT30;61850;54.980;73.298;2023-02-15T09:36:42;-11.70;70.44
73570;SHT30;61850;54.980;73.298;2023-02-15T09:39:20;-11.65;70.42
73570;SHT30;61850;54.980;73.298;2023-02-15T09:57:47;-11.67;70.56
73570;SHT30;61850;54.980;73.298;2023-02-15T10:03:07;-11.77;70.77
73570;SHT30;61850;54.980;73.298;2023-02-15T10:13:26;-11.90;71.07
73570;SHT30;61850;54.980;73.298;2023-02-15T10:15:59;-11.88;71.01
73570;SHT30;61850;54.980;73.298;2023-02-15T10:18:34;-11.17;70.20
73570;SHT30;61850;54.980;73.298;2023-02-15T10:23:41;-9.77;65.13
73570;SHT30;61850;54.980;73.298;2023-02-15T10:26:16;-9.56;63.97
73570;SHT30;61850;54.980;73.298;2023-02-15T10:31:23;-10.28;65.70
73570;SHT30;61850;54.980;73.298;2023-02-15T10:34:09;-10.53;65.45
73570;SHT30;61850;54.980;73.298;2023-02-15T10:42:39;-11.15;67.28
73570;SHT30;61850;54.980;73.298;2023-02-15T10:45:40;-11.12;67.49
73570;SHT30;61850;54.980;73.298;2023-02-15T11:00:53;-11.49;67.26
73570;SHT30;61850;54.980;73.298;2023-02-15T11:06:02;-11.77;68.50
73570;SHT30;61850;54.980;73.298;2023-02-15T11:08:36;-11.93;68.26
73570;SHT30;61850;54.980;73.298;2023-02-15T11:11:16;-11.95;68.47
73570;SHT30;61850;54.980;73.298;2023-02-15T11:13:54;-11.62;68.90
73570;SHT30;61850;54.980;73.298;2023-02-15T11:16:44;-10.88;66.57
73570;SHT30;61850;54.980;73.298;2023-02-15T11:19:14;-10.69;65.05
73570;SHT30;61850;54.980;73.298;2023-02-15T11:21:43;-10.26;63.98
73570;SHT30;61850;54.980;73.298;2023-02-15T11:24:16;-10.53;63.68
73570;SHT30;61850;54.980;73.298;2023-02-15T11:32:19;-10.64;63.68
73570;SHT30;61850;54.980;73.298;2023-02-15T11:34:58;-10.81;64.42
73570;SHT30;61850;54.980;73.298;2023-02-15T11:37:35;-10.90;65.20
73570;SHT30;61850;54.980;73.298;2023-02-15T11:40:06;-11.01;65.76
73570;SHT30;61850;54.980;73.298;2023-02-15T11:42:40;-11.11;65.94
73570;SHT30;61850;54.980;73.298;2023-02-15T11:47:52;-11.18;65.52
73570;SHT30;61850;54.980;73.298;2023-02-15T11:50:22;-11.74;66.74
73570;SHT30;61850;54.980;73.298;2023-02-15T11:52:52;-12.27;68.16
73570;SHT30;61850;54.980;73.298;2023-02-15T11:55:21;-12.49;69.16
73570;SHT30;61850;54.980;73.298;2023-02-15T12:00:42;-13.25;71.26
73570;SHT30;61850;54.980;73.298;2023-02-15T12:03:13;-13.50;72.13
73570;SHT30;61850;54.980;73.298;2023-02-15T12:05:40;-13.66;72.48
73570;SHT30;61850;54.980;73.298;2023-02-15T12:08:17;-13.84;72.86
73570;SHT30;61850;54.980;73.298;2023-02-15T12:13:18;-14.17;74.20
73570;SHT30;61850;54.980;73.298;2023-02-15T12:15:46;-14.24;74.63
73570;SHT30;61850;54.980;73.298;2023-02-15T12:20:59;-14.56;76.17
73570;SHT30;61850;54.980;73.298;2023-02-15T12:23:27;-14.65;76.82
73570;SHT30;61850;54.980;73.298;2023-02-15T12:26:03;-14.70;77.06
73570;SHT30;61850;54.980;73.298;2023-02-15T12:28:31;-14.73;77.26
73570;SHT30;61850;54.980;73.298;2023-02-15T12:33:46;-14.76;77.45
73570;SHT30;61850;54.980;73.298;2023-02-15T12:36:24;-14.80;77.60
73570;SHT30;61850;54.980;73.298;2023-02-15T12:39:05;-14.87;78.04
73570;SHT30;61850;54.980;73.298;2023-02-15T12:42:04;-14.86;78.25
73570;SHT30;61850;54.980;73.298;2023-02-15T12:44:33;-14.88;78.38
73570;SHT30;61850;54.980;73.298;2023-02-15T12:47:16;-14.87;78.60
73570;SHT30;61850;54.980;73.298;2023-02-15T12:49:43;-14.93;78.91
73570;SHT30;61850;54.980;73.298;2023-02-15T12:54:47;-14.96;78.86
73570;SHT30;61850;54.980;73.298;2023-02-15T12:57:28;-14.94;79.06
73570;SHT30;61850;54.980;73.298;2023-02-15T12:59:55;-14.96;79.24
73570;SHT30;61850;54.980;73.298;2023-02-15T13:02:25;-14.98;79.16
73570;SHT30;61850;54.980;73.298;2023-02-15T13:05:19;-14.97;79.30
73570;SHT30;61850;54.980;73.298;2023-02-15T13:07:50;-14.97;79.39
73570;SHT30;61850;54.980;73.298;2023-02-15T13:10:21;-14.93;79.30
73570;SHT30;61850;54.980;73.298;2023-02-15T13:12:48;-14.94;79.25
73570;SHT30;61850;54.980;73.298;2023-02-15T13:15:29;-14.96;79.35
73570;SHT30;61850;54.980;73.298;2023-02-15T13:18:11;-14.91;79.29
73570;SHT30;61850;54.980;73.298;2023-02-15T13:20:39;-14.97;79.41
73570;SHT30;61850;54.980;73.298;2023-02-15T13:23:29;-14.94;79.43
73570;SHT30;61850;54.980;73.298;2023-02-15T13:25:56;-14.97;79.28
73570;SHT30;61850;54.980;73.298;2023-02-15T13:28:37;-14.96;79.34
73570;SHT30;61850;54.980;73.298;2023-02-15T13:31:07;-14.98;79.53
73570;SHT30;61850;54.980;73.298;2023-02-15T13:33:39;-15.03;79.60
73570;SHT30;61850;54.980;73.298;2023-02-15T13:36:18;-15.05;79.84
73570;SHT30;61850;54.980;73.298;2023-02-15T13:38:49;-15.03;80.02
73570;SHT30;61850;54.980;73.298;2023-02-15T13:41:23;-15.04;80.00
73570;SHT30;61850;54.980;73.298;2023-02-15T13:43:53;-15.05;80.13
73570;SHT30;61850;54.980;73.298;2023-02-15T13:51:33;-15.10;80.14
73570;SHT30;61850;54.980;73.298;2023-02-15T13:59:43;-15.19;79.94
73570;SHT30;61850;54.980;73.298;2023-02-15T14:10:43;-15.24;79.54
73570;SHT30;61850;54.980;73.298;2023-02-15T14:21:15;-15.29;79.57
73570;SHT30;61850;54.980;73.298;2023-02-15T14:23:54;-15.31;79.20
73570;SHT30;61850;54.980;73.298;2023-02-15T14:29:16;-15.32;79.35
73570;SHT30;61850;54.980;73.298;2023-02-15T14:31:52;-15.40;79.14
73570;SHT30;61850;54.980;73.298;2023-02-15T14:34:24;-15.42;79.16
73570;SHT30;61850;54.980;73.298;2023-02-15T14:37:01;-15.43;78.98
73570;SHT30;61850;54.980;73.298;2023-02-15T14:42:27;-15.43;79.00
73570;SHT30;61850;54.980;73.298;2023-02-15T14:45:05;-15.46;79.14
73570;SHT30;61850;54.980;73.298;2023-02-15T14:47:41;-15.47;79.10
73570;SHT30;61850;54.980;73.298;2023-02-15T14:53:14;-15.52;79.52
73570;SHT30;61850;54.980;73.298;2023-02-15T14:56:02;-15.62;79.68
73570;SHT30;61850;54.980;73.298;2023-02-15T15:01:30;-15.57;79.84
73570;SHT30;61850;54.980;73.298;2023-02-15T15:04:07;-15.60;80.02
73570;SHT30;61850;54.980;73.298;2023-02-15T15:06:40;-15.65;80.23
73570;SHT30;61850;54.980;73.298;2023-02-15T15:09:27;-15.66;80.39
73570;SHT30;61850;54.980;73.298;2023-02-15T15:11:54;-15.66;80.35
73570;SHT30;61850;54.980;73.298;2023-02-15T15:17:02;-15.71;80.47
73570;SHT30;61850;54.980;73.298;2023-02-15T15:22:20;-15.73;80.67
73570;SHT30;61850;54.980;73.298;2023-02-15T15:24:47;-15.78;80.73
73570;SHT30;61850;54.980;73.298;2023-02-15T15:29:59;-15.76;80.69
73570;SHT30;61850;54.980;73.298;2023-02-15T15:32:36;-15.76;80.68
73570;SHT30;61850;54.980;73.298;2023-02-15T15:41:15;-15.87;80.41
73570;SHT30;61850;54.980;73.298;2023-02-15T15:48:52;-15.91;80.98
73570;SHT30;61850;54.980;73.298;2023-02-15T15:53:47;-15.91;80.96
73570;SHT30;61850;54.980;73.298;2023-02-15T15:56:17;-15.94;81.03
73570;SHT30;61850;54.980;73.298;2023-02-15T15:58:48;-15.93;81.10
73570;SHT30;61850;54.980;73.298;2023-02-15T16:01:15;-15.94;81.12
73570;SHT30;61850;54.980;73.298;2023-02-15T16:03:49;-15.91;80.99
73570;SHT30;61850;54.980;73.298;2023-02-15T16:06:34;-15.91;80.98
73570;SHT30;61850;54.980;73.298;2023-02-15T16:09:10;-15.94;80.95
73570;SHT30;61850;54.980;73.298;2023-02-15T16:11:37;-15.88;81.03
73570;SHT30;61850;54.980;73.298;2023-02-15T16:14:12;-15.90;80.97
73570;SHT30;61850;54.980;73.298;2023-02-15T16:16:46;-15.90;80.96
73570;SHT30;61850;54.980;73.298;2023-02-15T16:19:18;-15.95;81.21
73570;SHT30;61850;54.980;73.298;2023-02-15T16:21:55;-15.95;81.22
73570;SHT30;61850;54.980;73.298;2023-02-15T16:24:37;-15.97;81.38
73570;SHT30;61850;54.980;73.298;2023-02-15T16:29:46;-15.97;81.36
73570;SHT30;61850;54.980;73.298;2023-02-15T16:32:19;-15.94;81.40
73570;SHT30;61850;54.980;73.298;2023-02-15T16:34:54;-15.99;81.42
73570;SHT30;61850;54.980;73.298;2023-02-15T16:37:25;-15.98;81.60
73570;SHT30;61850;54.980;73.298;2023-02-15T16:39:53;-15.98;81.59
73570;SHT30;61850;54.980;73.298;2023-02-15T16:42:28;-15.94;81.45
73570;SHT30;61850;54.980;73.298;2023-02-15T16:44:57;-15.95;81.32
73570;SHT30;61850;54.980;73.298;2023-02-15T16:47:40;-15.95;81.35
73570;SHT30;61850;54.980;73.298;2023-02-15T16:50:16;-15.99;81.44
73570;SHT30;61850;54.980;73.298;2023-02-15T16:52:50;-15.97;81.30
73570;SHT30;61850;54.980;73.298;2023-02-15T16:55:20;-16.02;81.35
73570;SHT30;61850;54.980;73.298;2023-02-15T16:57:57;-16.07;81.53
73570;SHT30;61850;54.980;73.298;2023-02-15T17:00:28;-16.04;81.71
73570;SHT30;61850;54.980;73.298;2023-02-15T17:08:31;-16.11;81.81
73570;SHT30;61850;54.980;73.298;2023-02-15T17:13:27;-16.21;81.72
73570;SHT30;61850;54.980;73.298;2023-02-15T17:18:34;-16.32;81.87
73570;SHT30;61850;54.980;73.298;2023-02-15T17:21:40;-16.30;81.86
73570;SHT30;61850;54.980;73.298;2023-02-15T17:23:59;-16.35;81.87
73570;SHT30;61850;54.980;73.298;2023-02-15T17:26:36;-16.35;81.93
73570;SHT30;61850;54.980;73.298;2023-02-15T17:31:53;-16.40;81.93
73570;SHT30;61850;54.980;73.298;2023-02-15T17:35:16;-16.43;81.99
73570;SHT30;61850;54.980;73.298;2023-02-15T17:37:13;-16.49;82.08
73570;SHT30;61850;54.980;73.298;2023-02-15T17:39:49;-16.50;82.30
73570;SHT30;61850;54.980;73.298;2023-02-15T17:42:17;-16.47;82.32
73570;SHT30;61850;54.980;73.298;2023-02-15T17:44:53;-16.50;82.18
73570;SHT30;61850;54.980;73.298;2023-02-15T17:47:21;-16.47;82.20
73570;SHT30;61850;54.980;73.298;2023-02-15T17:49:50;-16.43;81.95
73570;SHT30;61850;54.980;73.298;2023-02-15T17:52:16;-16.46;82.11
73570;SHT30;61850;54.980;73.298;2023-02-15T17:54:43;-16.47;82.21
73570;SHT30;61850;54.980;73.298;2023-02-15T17:57:29;-16.46;82.19
73570;SHT30;61850;54.980;73.298;2023-02-15T17:59:56;-16.46;81.98
73570;SHT30;61850;54.980;73.298;2023-02-15T18:02:42;-16.47;82.14
73570;SHT30;61850;54.980;73.298;2023-02-15T18:05:27;-16.47;82.20
73570;SHT30;61850;54.980;73.298;2023-02-15T18:08:21;-16.45;82.02
73570;SHT30;61850;54.980;73.298;2023-02-15T18:11:07;-16.46;82.12
73570;SHT30;61850;54.980;73.298;2023-02-15T18:13:56;-16.52;82.50
73570;SHT30;61850;54.980;73.298;2023-02-15T18:16:28;-16.52;82.63
73570;SHT30;61850;54.980;73.298;2023-02-15T18:19:01;-16.46;82.64
73570;SHT30;61850;54.980;73.298;2023-02-15T18:21:43;-16.46;82.40
73570;SHT30;61850;54.980;73.298;2023-02-15T18:24:29;-16.47;82.46
73570;SHT30;61850;54.980;73.298;2023-02-15T18:27:01;-16.40;82.20
73570;SHT30;61850;54.980;73.298;2023-02-15T18:29:30;-16.42;81.99
73570;SHT30;61850;54.980;73.298;2023-02-15T18:31:57;-16.39;81.88